Desert Spring — V7XQ8 — position and weather

sailwx.info

Track history (hours):
 
Tides and Currents Weather Stations Pressure Air Temp Water Temp Dewpoint Dewpoint Depression Visibility Wind Speed Wind Dir Waves Ship Positions

Desert Spring

Last reported at 2016-Aug-08 05:33 UTC. Time now 2016-Aug-30 04:56 UTC.
Position N 26°48' W 014°26'.
Warning: this ship's position is 21 days out of date.

Length 193 m; draft 12.1 m.

Type: Cargo ship. MMSI: 538004547.

Date/timePositionNaut miles runAvg speedWind from/ knotsBaromVisibWave heightAir tempDewpointWater temp
2016-Aug-08 05:33N 26°48' W 014°26'1110.5
2016-Aug-08 04:30N 26°57' W 014°19'1010.5
2016-Aug-08 03:33N 27°06' W 014°12'1510.6
2016-Aug-08 02:09N 27°18' W 014°03'610.7
2016-Aug-08 01:33N 27°23' W 013°59'1111.0
2016-Aug-08 00:33N 27°32' W 013°52'1111.0
2016-Aug-07 23:33N 27°41' W 013°45'2211.2
2016-Aug-07 21:33N 27°60' W 013°31'1211.6
2016-Aug-07 20:33N 28°09' W 013°23'1211.5
2016-Aug-07 19:30N 28°19' W 013°16'1011.2
2016-Aug-07 18:33N 28°28' W 013°09'1111.0
2016-Aug-07 17:33N 28°37' W 013°02'1511.1
2016-Aug-07 16:13N 28°50' W 012°53'1810.9
2016-Aug-07 14:33N 29°05' W 012°42'1210.7
2016-Aug-07 13:25N 29°15' W 012°34'1211.0
2016-Aug-07 12:18N 29°26' W 012°26'5110.6
2016-Aug-07 07:28N 30°08' W 011°54'1010.6
2016-Aug-07 06:33N 30°17' W 011°48'2310.8
2016-Aug-07 04:28N 30°36' W 011°34'1011.3
2016-Aug-07 03:32N 30°44' W 011°27'1111.6
2016-Aug-07 02:33N 30°54' W 011°20'1111.3
2016-Aug-07 01:33N 31°03' W 011°13'1111.1
2016-Aug-07 00:33N 31°13' W 011°06'1111.5
2016-Aug-06 23:33N 31°22' W 010°58'1311.7
2016-Aug-06 22:26N 31°33' W 010°50'1112.0
2016-Aug-06 21:33N 31°42' W 010°43'1212.1
2016-Aug-06 20:33N 31°52' W 010°35'1611.7
2016-Aug-06 19:12N 32°06' W 010°25'711.7
2016-Aug-06 18:33N 32°12' W 010°20'1211.5
2016-Aug-06 17:33N 32°21' W 010°13'2211.1
2016-Aug-06 15:33N 32°40' W 009°58'4511.3
2016-Aug-06 11:33N 33°11' W 009°19'1411.2
2016-Aug-06 10:17N 33°21' W 009°07'2011.7
2016-Aug-06 08:32N 33°35' W 008°49'5611.2
2016-Aug-06 03:33N 34°14' W 008°01'1411.1
2016-Aug-06 02:17N 34°24' W 007°48'1011.3
2016-Aug-06 01:24N 34°31' W 007°40'6611.1
2016-Aug-05 19:29N 35°17' W 006°43'1010.9
2016-Aug-05 18:32N 35°24' W 006°33'6110.1
2016-Aug-05 12:33N 35°58' W 005°32'8 8.5
2016-Aug-05 11:33N 36°01' W 005°22'7 6.6
2016-Aug-05 10:33N 36°07' W 005°17'3 2.5
2016-Aug-05 09:30N 36°08' W 005°15'27310.0
2016-Aug-04 06:20N 36°43' E 000°22'7010.4
2016-Aug-03 23:33N 36°53' E 001°48'1110.6
2016-Aug-03 22:33N 36°55' E 002°01'1210.9
2016-Aug-03 21:29N 36°56' E 002°16'1210.8
2016-Aug-03 20:25N 36°58' E 002°30'910.8
2016-Aug-03 19:33N 36°60' E 002°42'1110.7
2016-Aug-03 18:33N 37°01' E 002°55'1110.9
2016-Aug-03 17:33N 37°03' E 003°09'1111.0
2016-Aug-03 16:33N 37°04' E 003°22'1511.0
2016-Aug-03 15:12N 37°06' E 003°41'711.0
2016-Aug-03 14:33N 37°07' E 003°49'1110.7
2016-Aug-03 13:29N 37°09' E 004°04'1211.2
2016-Aug-03 12:23N 37°11' E 004°19'911.2
2016-Aug-03 11:33N 37°12' E 004°31'1111.2
2016-Aug-03 10:33N 37°14' E 004°44'1411.1
2016-Aug-03 09:17N 37°16' E 005°02'12611.7
2016-Aug-02 22:32N 37°34' E 007°39'18711.7
2016-Aug-02 06:33N 37°17' E 011°34'24 9.9
2016-Aug-02 04:09N 37°06' E 011°60'610.1
2016-Aug-02 03:33N 37°04' E 012°07'14 9.8
2016-Aug-02 02:08N 36°59' E 012°23'2710.6
2016-Aug-01 23:33N 36°51' E 012°56'1010.2
2016-Aug-01 22:33N 36°48' E 013°08'10 9.9
2016-Aug-01 21:33N 36°45' E 013°20'10 9.9
2016-Aug-01 20:33N 36°42' E 013°32'10 9.7
2016-Aug-01 19:33N 36°39' E 013°43'9 9.4
2016-Aug-01 18:33N 36°36' E 013°54'9 9.4
2016-Aug-01 17:33N 36°32' E 014°05'1010.1
2016-Aug-01 16:33N 36°30' E 014°17'1010.4
2016-Aug-01 15:33N 36°27' E 014°30'1110.6
2016-Aug-01 14:33N 36°23' E 014°42'1110.6
2016-Aug-01 13:33N 36°20' E 014°55'1110.5
2016-Aug-01 12:33N 36°17' E 015°07'1110.7
2016-Aug-01 11:31N 36°16' E 015°21'1110.8
2016-Aug-01 10:32N 36°15' E 015°34'2411.1
2016-Aug-01 08:24N 36°15' E 016°04'1111.5
2016-Aug-01 07:28N 36°15' E 016°17'2211.5
2016-Aug-01 05:33N 36°15' E 016°44'33610.1
2016-Jul-30 20:23N 37°02' E 023°38'910.8
2016-Jul-30 19:32N 37°11' E 023°41'1010.6
2016-Jul-30 18:33N 37°21' E 023°44'1111.1
2016-Jul-30 17:33N 37°32' E 023°43'1010.5
2016-Jul-30 16:33N 37°42' E 023°41'10 9.7
2016-Jul-30 15:33N 37°51' E 023°35'3 2.8
2016-Jul-30 14:31N 37°52' E 023°31'0 0.0
2016-Jul-30 13:31N 37°52' E 023°31'0 0.1
2016-Jul-30 12:31N 37°52' E 023°31'0 0.0
2016-Jul-30 11:31N 37°52' E 023°31'0 0.1
2016-Jul-30 10:31N 37°52' E 023°31'0 0.0
2016-Jul-30 09:31N 37°52' E 023°31'0 0.0
2016-Jul-30 08:31N 37°52' E 023°31'0 0.1
2016-Jul-30 07:31N 37°52' E 023°31'0 0.1
2016-Jul-30 06:31N 37°52' E 023°31'1 0.6
2016-Jul-30 05:34N 37°52' E 023°32'4 4.1
2016-Jul-30 04:33N 37°51' E 023°37'7 7.0
2016-Jul-30 03:33N 37°45' E 023°42'1010.4
2016-Jul-30 02:33N 37°38' E 023°51'1010.3
2016-Jul-30 01:33N 37°36' E 024°04'1010.1
2016-Jul-30 00:33N 37°42' E 024°14'1110.9
2016-Jul-29 23:33N 37°49' E 024°25'1010.4
2016-Jul-29 22:33N 37°55' E 024°36'  
Track history (hours):
 
Tides and Currents Weather Stations Pressure Air Temp Water Temp Dewpoint Dewpoint Depression Visibility Wind Speed Wind Dir Waves Ship Positions

Desert Spring

Last reported at 2016-Aug-08 05:33 UTC. Time now 2016-Aug-30 04:56 UTC.
Position N 26°48' W 014°26'.
Warning: this ship's position is 21 days out of date.

Length 193 m; draft 12.1 m.

Type: Cargo ship. MMSI: 538004547.

Date/timePositionNaut miles runAvg speedWind from/ knotsBaromVisibWave heightAir tempDewpointWater temp
2016-Aug-08 05:33N 26°48' W 014°26'1110.5
2016-Aug-08 04:30N 26°57' W 014°19'1010.5
2016-Aug-08 03:33N 27°06' W 014°12'1510.6
2016-Aug-08 02:09N 27°18' W 014°03'610.7
2016-Aug-08 01:33N 27°23' W 013°59'1111.0
2016-Aug-08 00:33N 27°32' W 013°52'1111.0
2016-Aug-07 23:33N 27°41' W 013°45'2211.2
2016-Aug-07 21:33N 27°60' W 013°31'1211.6
2016-Aug-07 20:33N 28°09' W 013°23'1211.5
2016-Aug-07 19:30N 28°19' W 013°16'1011.2
2016-Aug-07 18:33N 28°28' W 013°09'1111.0
2016-Aug-07 17:33N 28°37' W 013°02'1511.1
2016-Aug-07 16:13N 28°50' W 012°53'1810.9
2016-Aug-07 14:33N 29°05' W 012°42'1210.7
2016-Aug-07 13:25N 29°15' W 012°34'1211.0
2016-Aug-07 12:18N 29°26' W 012°26'5110.6
2016-Aug-07 07:28N 30°08' W 011°54'1010.6
2016-Aug-07 06:33N 30°17' W 011°48'2310.8
2016-Aug-07 04:28N 30°36' W 011°34'1011.3
2016-Aug-07 03:32N 30°44' W 011°27'1111.6
2016-Aug-07 02:33N 30°54' W 011°20'1111.3
2016-Aug-07 01:33N 31°03' W 011°13'1111.1
2016-Aug-07 00:33N 31°13' W 011°06'1111.5
2016-Aug-06 23:33N 31°22' W 010°58'1311.7
2016-Aug-06 22:26N 31°33' W 010°50'1112.0
2016-Aug-06 21:33N 31°42' W 010°43'1212.1
2016-Aug-06 20:33N 31°52' W 010°35'1611.7
2016-Aug-06 19:12N 32°06' W 010°25'711.7
2016-Aug-06 18:33N 32°12' W 010°20'1211.5
2016-Aug-06 17:33N 32°21' W 010°13'2211.1
2016-Aug-06 15:33N 32°40' W 009°58'4511.3
2016-Aug-06 11:33N 33°11' W 009°19'1411.2
2016-Aug-06 10:17N 33°21' W 009°07'2011.7
2016-Aug-06 08:32N 33°35' W 008°49'5611.2
2016-Aug-06 03:33N 34°14' W 008°01'1411.1
2016-Aug-06 02:17N 34°24' W 007°48'1011.3
2016-Aug-06 01:24N 34°31' W 007°40'6611.1
2016-Aug-05 19:29N 35°17' W 006°43'1010.9
2016-Aug-05 18:32N 35°24' W 006°33'6110.1
2016-Aug-05 12:33N 35°58' W 005°32'8 8.5
2016-Aug-05 11:33N 36°01' W 005°22'7 6.6
2016-Aug-05 10:33N 36°07' W 005°17'3 2.5
2016-Aug-05 09:30N 36°08' W 005°15'27310.0
2016-Aug-04 06:20N 36°43' E 000°22'7010.4
2016-Aug-03 23:33N 36°53' E 001°48'1110.6
2016-Aug-03 22:33N 36°55' E 002°01'1210.9
2016-Aug-03 21:29N 36°56' E 002°16'1210.8
2016-Aug-03 20:25N 36°58' E 002°30'910.8
2016-Aug-03 19:33N 36°60' E 002°42'1110.7
2016-Aug-03 18:33N 37°01' E 002°55'1110.9
2016-Aug-03 17:33N 37°03' E 003°09'1111.0
2016-Aug-03 16:33N 37°04' E 003°22'1511.0
2016-Aug-03 15:12N 37°06' E 003°41'711.0
2016-Aug-03 14:33N 37°07' E 003°49'1110.7
2016-Aug-03 13:29N 37°09' E 004°04'1211.2
2016-Aug-03 12:23N 37°11' E 004°19'911.2
2016-Aug-03 11:33N 37°12' E 004°31'1111.2
2016-Aug-03 10:33N 37°14' E 004°44'1411.1
2016-Aug-03 09:17N 37°16' E 005°02'12611.7
2016-Aug-02 22:32N 37°34' E 007°39'18711.7
2016-Aug-02 06:33N 37°17' E 011°34'24 9.9
2016-Aug-02 04:09N 37°06' E 011°60'610.1
2016-Aug-02 03:33N 37°04' E 012°07'14 9.8
2016-Aug-02 02:08N 36°59' E 012°23'2710.6
2016-Aug-01 23:33N 36°51' E 012°56'1010.2
2016-Aug-01 22:33N 36°48' E 013°08'10 9.9
2016-Aug-01 21:33N 36°45' E 013°20'10 9.9
2016-Aug-01 20:33N 36°42' E 013°32'10 9.7
2016-Aug-01 19:33N 36°39' E 013°43'9 9.4
2016-Aug-01 18:33N 36°36' E 013°54'9 9.4
2016-Aug-01 17:33N 36°32' E 014°05'1010.1
2016-Aug-01 16:33N 36°30' E 014°17'1010.4
2016-Aug-01 15:33N 36°27' E 014°30'1110.6
2016-Aug-01 14:33N 36°23' E 014°42'1110.6
2016-Aug-01 13:33N 36°20' E 014°55'1110.5
2016-Aug-01 12:33N 36°17' E 015°07'1110.7
2016-Aug-01 11:31N 36°16' E 015°21'1110.8
2016-Aug-01 10:32N 36°15' E 015°34'2411.1
2016-Aug-01 08:24N 36°15' E 016°04'1111.5
2016-Aug-01 07:28N 36°15' E 016°17'2211.5
2016-Aug-01 05:33N 36°15' E 016°44'33610.1
2016-Jul-30 20:23N 37°02' E 023°38'910.8
2016-Jul-30 19:32N 37°11' E 023°41'1010.6
2016-Jul-30 18:33N 37°21' E 023°44'1111.1
2016-Jul-30 17:33N 37°32' E 023°43'1010.5
2016-Jul-30 16:33N 37°42' E 023°41'10 9.7
2016-Jul-30 15:33N 37°51' E 023°35'3 2.8
2016-Jul-30 14:31N 37°52' E 023°31'0 0.0
2016-Jul-30 13:31N 37°52' E 023°31'0 0.1
2016-Jul-30 12:31N 37°52' E 023°31'0 0.0
2016-Jul-30 11:31N 37°52' E 023°31'0 0.1
2016-Jul-30 10:31N 37°52' E 023°31'0 0.0
2016-Jul-30 09:31N 37°52' E 023°31'0 0.0
2016-Jul-30 08:31N 37°52' E 023°31'0 0.1
2016-Jul-30 07:31N 37°52' E 023°31'0 0.1
2016-Jul-30 06:31N 37°52' E 023°31'1 0.6
2016-Jul-30 05:34N 37°52' E 023°32'4 4.1
2016-Jul-30 04:33N 37°51' E 023°37'7 7.0
2016-Jul-30 03:33N 37°45' E 023°42'1010.4
2016-Jul-30 02:33N 37°38' E 023°51'1010.3
2016-Jul-30 01:33N 37°36' E 024°04'1010.1
2016-Jul-30 00:33N 37°42' E 024°14'1110.9
2016-Jul-29 23:33N 37°49' E 024°25'1010.4
2016-Jul-29 22:33N 37°55' E 024°36'  

Dump ship's entire track history